Time;durP1;ratioP1;P1;durP2;ratioP2;P2;SDS_P1;SDS_P2;PMS_P1;PMS_P2;Temp;Humidity;BMP_temperature;BMP_pressure;BME280_temperature;BME280_humidity;BME280_pressure;Samples;Min_cycle;Max_cycle;Signal;HPM_P1;HPM_P2
2022/03/29 00:02:03;;;;;;;7.57;5.50;;;;;;;;;;5074785;28;20413;-73
2022/03/29 00:04:29;;;;;;;10.17;6.03;;;;;;;;;;5074846;28;20467;-74
2022/03/29 00:06:55;;;;;;;7.07;5.70;;;;;;;;;;5074632;28;20416;-74
2022/03/29 00:09:21;;;;;;;5.80;5.23;;;;;;;;;;5075080;28;20409;-73
2022/03/29 00:11:47;;;;;;;6.13;5.63;;;;;;;;;;5075067;28;20417;-74
2022/03/29 00:14:14;;;;;;;5.73;4.70;;;;;;;;;;5074724;28;20441;-74
2022/03/29 00:16:40;;;;;;;6.93;6.33;;;;;;;;;;5074703;28;20406;-74
2022/03/29 00:19:06;;;;;;;5.90;5.30;;;;;;;;;;5074598;28;20469;-74
2022/03/29 00:21:33;;;;;;;14.03;5.57;;;;;;;;;;5074581;28;20452;-74
2022/03/29 00:23:59;;;;;;;5.70;5.10;;;;;;;;;;5056467;28;20438;-74
2022/03/29 00:26:25;;;;;;;7.03;5.33;;;;;;;;;;5074816;28;20418;-74
2022/03/29 00:28:51;;;;;;;7.13;5.90;;;;;;;;;;5074472;28;20413;-74
2022/03/29 00:31:19;;;;;;;9.10;5.53;;;;;;;;;;5074222;28;20821;-74
2022/03/29 00:33:45;;;;;;;8.37;5.00;;;;;;;;;;5074347;28;20504;-74
2022/03/29 00:36:11;;;;;;;7.70;5.20;;;;;;;;;;5074121;28;20421;-74
2022/03/29 00:38:37;;;;;;;5.23;4.83;;;;;;;;;;5074610;28;20476;-74
2022/03/29 00:41:03;;;;;;;5.37;4.97;;;;;;;;;;5074039;28;20425;-74
2022/03/29 00:43:29;;;;;;;7.13;6.40;;;;;;;;;;5074470;28;20457;-74
2022/03/29 00:45:56;;;;;;;7.10;5.83;;;;;;;;;;5073977;28;20417;-74
2022/03/29 00:48:22;;;;;;;6.90;5.97;;;;;;;;;;5074051;28;20429;-74
2022/03/29 00:50:48;;;;;;;6.70;5.30;;;;;;;;;;5074182;28;20762;-74
2022/03/29 00:53:14;;;;;;;13.47;6.57;;;;;;;;;;5073871;28;20418;-74
2022/03/29 00:55:43;;;;;;;11.00;6.90;;;;;;;;;;5074181;28;20405;-74
2022/03/29 00:58:11;;;;;;;7.10;5.63;;;;;;;;;;5055950;28;20465;-74
2022/03/29 01:00:37;;;;;;;6.13;5.30;;;;;;;;;;5074035;28;20426;-74
2022/03/29 01:06:07;;;;;;;5.27;4.77;;;;;;;;;;5073614;28;20919;-74
2022/03/29 01:08:34;;;;;;;4.70;4.43;;;;;;;;;;5073553;28;20410;-73
2022/03/29 01:11:00;;;;;;;4.37;4.10;;;;;;;;;;5073732;28;20417;-74
2022/03/29 01:13:26;;;;;;;5.60;5.00;;;;;;;;;;5073785;28;20802;-74
2022/03/29 01:15:52;;;;;;;5.23;4.90;;;;;;;;;;5073322;28;20538;-74
2022/03/29 01:18:20;;;;;;;4.53;4.33;;;;;;;;;;5073833;28;20964;-74
2022/03/29 01:20:48;;;;;;;4.67;4.40;;;;;;;;;;5073441;28;20491;-74
2022/03/29 01:23:14;;;;;;;4.60;4.20;;;;;;;;;;5073878;28;20467;-74
2022/03/29 01:25:40;;;;;;;4.70;4.43;;;;;;;;;;5073583;28;20409;-74
2022/03/29 01:28:07;;;;;;;4.47;4.20;;;;;;;;;;5073259;28;20508;-74
2022/03/29 01:30:33;;;;;;;4.50;3.77;;;;;;;;;;5073013;28;20579;-74
2022/03/29 01:33:00;;;;;;;5.70;4.77;;;;;;;;;;5073297;28;20421;-74
2022/03/29 01:35:27;;;;;;;4.80;4.40;;;;;;;;;;5072924;28;20402;-74
2022/03/29 01:37:54;;;;;;;4.60;4.23;;;;;;;;;;5072800;28;20893;-74
2022/03/29 01:40:21;;;;;;;6.03;4.90;;;;;;;;;;5073258;28;20414;-74
2022/03/29 01:42:49;;;;;;;5.53;5.03;;;;;;;;;;5073350;28;20421;-74
2022/03/29 01:45:15;;;;;;;6.33;5.80;;;;;;;;;;5073581;28;20429;-74
2022/03/29 01:47:41;;;;;;;5.60;5.00;;;;;;;;;;5073310;28;20426;-74
2022/03/29 01:50:08;;;;;;;5.43;5.03;;;;;;;;;;5072917;28;20418;-74
2022/03/29 01:52:47;;;;;;;4.33;4.13;;;;;;;;;;5073041;28;20746;-74
2022/03/29 01:55:14;;;;;;;6.70;5.97;;;;;;;;;;5072982;28;20787;-74
2022/03/29 01:57:40;;;;;;;5.80;5.20;;;;;;;;;;5073247;28;20453;-74
2022/03/29 02:02:51;;;;;;;5.70;5.20;;;;;;;;;;5073368;28;20525;-74
2022/03/29 02:05:18;;;;;;;10.63;5.10;;;;;;;;;;5073084;28;20504;-74
2022/03/29 02:07:44;;;;;;;5.00;4.60;;;;;;;;;;5073233;28;20418;-74
2022/03/29 02:10:10;;;;;;;5.53;4.87;;;;;;;;;;5072995;28;20414;-74
2022/03/29 02:12:36;;;;;;;5.93;5.33;;;;;;;;;;5073144;28;20873;-74
2022/03/29 02:15:03;;;;;;;8.10;5.77;;;;;;;;;;5073146;28;20413;-74
2022/03/29 02:17:29;;;;;;;5.70;5.30;;;;;;;;;;5072763;28;20469;-74
2022/03/29 02:19:55;;;;;;;5.67;4.87;;;;;;;;;;5072657;28;20939;-74
2022/03/29 02:22:21;;;;;;;11.00;4.90;;;;;;;;;;5072908;28;20475;-74
2022/03/29 02:24:47;;;;;;;5.03;4.77;;;;;;;;;;5072962;28;20467;-74
2022/03/29 02:27:13;;;;;;;13.73;5.23;;;;;;;;;;5073081;28;20421;-74
2022/03/29 02:29:39;;;;;;;5.40;4.87;;;;;;;;;;5072326;28;20410;-74
2022/03/29 02:32:05;;;;;;;5.00;4.70;;;;;;;;;;5072629;28;20962;-74
2022/03/29 02:34:31;;;;;;;7.07;5.07;;;;;;;;;;5072953;28;20410;-74
2022/03/29 02:36:58;;;;;;;9.97;5.33;;;;;;;;;;5072760;28;20421;-74
2022/03/29 02:39:24;;;;;;;10.87;5.30;;;;;;;;;;5072633;28;20579;-74
2022/03/29 02:41:50;;;;;;;8.80;5.67;;;;;;;;;;5072565;28;20425;-74
2022/03/29 02:44:16;;;;;;;5.70;5.20;;;;;;;;;;5072905;28;20519;-75
2022/03/29 02:46:44;;;;;;;8.37;5.77;;;;;;;;;;5072501;28;20940;-74
2022/03/29 02:49:10;;;;;;;5.70;5.40;;;;;;;;;;5074684;28;20824;-74
2022/03/29 02:51:36;;;;;;;5.40;4.60;;;;;;;;;;5076053;28;20418;-74
2022/03/29 02:54:02;;;;;;;6.10;5.53;;;;;;;;;;5076413;28;20417;-74
2022/03/29 02:56:28;;;;;;;5.90;4.80;;;;;;;;;;5076111;28;20426;-74
2022/03/29 02:58:54;;;;;;;5.93;5.43;;;;;;;;;;5076135;28;20464;-74
2022/03/29 03:01:20;;;;;;;7.47;5.23;;;;;;;;;;5076177;28;20422;-74
2022/03/29 03:03:46;;;;;;;5.30;4.80;;;;;;;;;;5075887;28;20413;-75
2022/03/29 03:06:12;;;;;;;5.30;4.80;;;;;;;;;;5075884;28;20766;-74
2022/03/29 03:08:38;;;;;;;11.40;5.87;;;;;;;;;;5075990;28;20413;-74
2022/03/29 03:11:04;;;;;;;6.73;6.13;;;;;;;;;;5075844;28;20453;-74
2022/03/29 03:13:32;;;;;;;5.93;5.43;;;;;;;;;;5076019;28;20429;-74
2022/03/29 03:15:58;;;;;;;5.67;5.27;;;;;;;;;;5075627;28;20402;-74
2022/03/29 03:18:24;;;;;;;5.33;4.97;;;;;;;;;;5076197;28;20472;-74
2022/03/29 03:20:50;;;;;;;6.00;4.60;;;;;;;;;;5075772;28;20814;-74
2022/03/29 03:23:16;;;;;;;10.20;5.90;;;;;;;;;;5076171;28;20512;-74
2022/03/29 03:25:42;;;;;;;9.90;5.73;;;;;;;;;;5075670;28;20413;-74
2022/03/29 03:28:08;;;;;;;10.10;5.67;;;;;;;;;;5075578;28;20426;-74
2022/03/29 03:30:34;;;;;;;9.40;4.83;;;;;;;;;;5057360;28;20461;-74
2022/03/29 03:36:12;;;;;;;25.37;5.13;;;;;;;;;;5075595;28;20995;-74
2022/03/29 03:38:38;;;;;;;6.47;5.83;;;;;;;;;;5075893;28;20579;-74
2022/03/29 03:41:04;;;;;;;7.80;5.37;;;;;;;;;;5075637;28;20406;-74
2022/03/29 03:43:30;;;;;;;7.43;5.10;;;;;;;;;;5075253;28;20476;-74
2022/03/29 03:45:56;;;;;;;9.50;4.87;;;;;;;;;;5075493;28;20441;-74
2022/03/29 03:48:22;;;;;;;5.60;5.10;;;;;;;;;;5075225;28;20409;-74
2022/03/29 03:50:48;;;;;;;5.30;4.80;;;;;;;;;;5075446;28;20406;-74
2022/03/29 03:53:14;;;;;;;8.63;5.40;;;;;;;;;;5075076;28;20916;-74
2022/03/29 03:55:40;;;;;;;7.93;5.87;;;;;;;;;;5075356;28;20405;-73
2022/03/29 03:58:06;;;;;;;5.43;4.93;;;;;;;;;;5075124;28;20476;-74
2022/03/29 04:00:32;;;;;;;6.10;5.60;;;;;;;;;;5074744;28;20458;-74
2022/03/29 04:02:59;;;;;;;5.40;4.90;;;;;;;;;;5074860;28;20409;-74
2022/03/29 04:05:27;;;;;;;5.70;5.27;;;;;;;;;;5075137;28;20429;-74
2022/03/29 04:07:53;;;;;;;6.67;6.03;;;;;;;;;;5075111;28;20418;-74
2022/03/29 04:10:19;;;;;;;5.30;5.00;;;;;;;;;;5074850;28;20417;-74
2022/03/29 04:12:45;;;;;;;5.03;4.63;;;;;;;;;;5075051;28;20464;-74
2022/03/29 04:15:12;;;;;;;4.77;4.50;;;;;;;;;;5074637;28;20417;-74
2022/03/29 04:17:38;;;;;;;5.23;4.77;;;;;;;;;;5074790;28;20509;-74
2022/03/29 04:20:04;;;;;;;6.80;5.10;;;;;;;;;;5074604;28;20410;-74
2022/03/29 04:22:30;;;;;;;6.47;4.97;;;;;;;;;;5056660;28;20571;-74
2022/03/29 04:24:56;;;;;;;6.30;5.50;;;;;;;;;;5074573;28;20888;-74
2022/03/29 04:27:22;;;;;;;5.80;5.33;;;;;;;;;;5074675;28;20418;-74
2022/03/29 04:29:48;;;;;;;5.33;5.03;;;;;;;;;;5074564;28;20747;-74
2022/03/29 04:32:14;;;;;;;5.97;5.43;;;;;;;;;;5074620;28;20418;-74
2022/03/29 04:34:40;;;;;;;5.13;4.60;;;;;;;;;;5074105;28;20421;-74
2022/03/29 04:37:06;;;;;;;6.20;4.43;;;;;;;;;;5073710;28;20426;-74
2022/03/29 04:39:33;;;;;;;6.63;5.33;;;;;;;;;;5074096;28;20468;-74
2022/03/29 04:41:59;;;;;;;7.50;4.77;;;;;;;;;;5074199;28;20405;-74
2022/03/29 04:44:25;;;;;;;12.70;4.70;;;;;;;;;;5074301;28;20509;-73
2022/03/29 04:46:51;;;;;;;13.23;5.40;;;;;;;;;;5074266;28;20421;-73
2022/03/29 04:49:17;;;;;;;6.70;5.30;;;;;;;;;;5074236;28;20532;-74
2022/03/29 04:51:43;;;;;;;8.60;5.40;;;;;;;;;;5074203;28;20421;-74
2022/03/29 04:54:09;;;;;;;9.90;5.50;;;;;;;;;;5073892;28;20417;-74
2022/03/29 04:56:35;;;;;;;6.00;5.50;;;;;;;;;;5074085;28;20432;-74
2022/03/29 04:59:01;;;;;;;8.10;6.20;;;;;;;;;;5073764;28;20473;-75
2022/03/29 05:01:27;;;;;;;8.80;5.73;;;;;;;;;;5074064;28;20410;-74
2022/03/29 05:03:53;;;;;;;5.90;5.30;;;;;;;;;;5073630;28;20409;-74
2022/03/29 05:06:19;;;;;;;7.53;6.83;;;;;;;;;;5073796;28;20406;-74
2022/03/29 05:08:45;;;;;;;9.77;7.37;;;;;;;;;;5073672;28;20409;-74
2022/03/29 05:11:11;;;;;;;8.20;6.50;;;;;;;;;;5072977;28;20496;-74
2022/03/29 05:13:37;;;;;;;9.83;5.70;;;;;;;;;;5073913;28;20420;-73
2022/03/29 05:16:04;;;;;;;9.57;8.23;;;;;;;;;;5073575;28;20409;-75
2022/03/29 05:18:30;;;;;;;12.30;8.73;;;;;;;;;;5073343;28;20560;-74
2022/03/29 05:20:55;;;;;;;19.17;8.80;;;;;;;;;;5073951;28;20496;-74
2022/03/29 05:23:23;;;;;;;19.37;9.60;;;;;;;;;;5073909;28;20897;-74
2022/03/29 05:25:49;;;;;;;10.00;7.67;;;;;;;;;;5073238;28;20401;-74
2022/03/29 05:28:15;;;;;;;18.80;9.07;;;;;;;;;;5073252;28;20428;-74
2022/03/29 05:30:41;;;;;;;12.03;7.97;;;;;;;;;;5073157;28;20472;-74
2022/03/29 05:33:10;;;;;;;23.30;8.20;;;;;;;;;;5073436;28;20433;-73
2022/03/29 05:35:36;;;;;;;15.90;8.60;;;;;;;;;;5073039;28;20798;-73
2022/03/29 05:38:02;;;;;;;12.57;8.93;;;;;;;;;;5073542;28;20474;-74
2022/03/29 05:40:29;;;;;;;17.60;8.53;;;;;;;;;;5073734;28;20406;-73
2022/03/29 05:42:55;;;;;;;12.43;7.00;;;;;;;;;;5073400;28;20442;-73
2022/03/29 05:45:21;;;;;;;20.47;8.90;;;;;;;;;;5073329;28;20448;-73
2022/03/29 05:50:32;;;;;;;20.67;7.67;;;;;;;;;;5073608;28;20437;-73
2022/03/29 05:52:59;;;;;;;15.53;7.17;;;;;;;;;;5073206;28;20446;-73
2022/03/29 05:55:26;;;;;;;21.90;7.83;;;;;;;;;;5073235;28;20488;-73
2022/03/29 05:57:52;;;;;;;14.23;7.90;;;;;;;;;;5072928;28;20492;-73
2022/03/29 06:00:21;;;;;;;20.37;7.90;;;;;;;;;;5073167;28;20417;-74
2022/03/29 06:02:47;;;;;;;13.80;7.90;;;;;;;;;;5072679;28;20406;-73
2022/03/29 06:05:13;;;;;;;14.33;7.60;;;;;;;;;;5072974;28;20500;-73
2022/03/29 06:07:39;;;;;;;10.50;7.60;;;;;;;;;;5072755;28;20921;-74
2022/03/29 06:10:08;;;;;;;14.73;8.83;;;;;;;;;;5072722;28;20417;-74
2022/03/29 06:12:36;;;;;;;11.60;7.27;;;;;;;;;;5073511;28;20429;-74
2022/03/29 06:15:06;;;;;;;31.30;9.70;;;;;;;;;;5073046;28;20524;-73
2022/03/29 06:17:32;;;;;;;24.47;9.40;;;;;;;;;;5072751;28;20469;-74
2022/03/29 06:19:58;;;;;;;12.97;8.90;;;;;;;;;;5072747;28;20426;-73
2022/03/29 06:22:24;;;;;;;16.33;9.10;;;;;;;;;;5073647;28;20444;-73
2022/03/29 06:24:50;;;;;;;15.53;7.90;;;;;;;;;;5076660;28;20963;-74
2022/03/29 06:27:16;;;;;;;17.93;8.70;;;;;;;;;;5076992;28;20435;-73
2022/03/29 06:29:42;;;;;;;14.60;8.07;;;;;;;;;;5076634;28;20905;-74
2022/03/29 06:32:08;;;;;;;28.40;7.67;;;;;;;;;;5076519;28;20418;-73
2022/03/29 06:34:34;;;;;;;9.07;7.57;;;;;;;;;;5076376;28;20412;-74
2022/03/29 06:37:01;;;;;;;14.40;8.00;;;;;;;;;;5076264;28;20409;-74
2022/03/29 06:39:29;;;;;;;7.80;6.47;;;;;;;;;;5076561;28;20472;-75
2022/03/29 06:41:56;;;;;;;12.00;7.50;;;;;;;;;;5076742;28;20412;-77
2022/03/29 06:44:22;;;;;;;11.93;6.60;;;;;;;;;;5076679;28;20417;-75
2022/03/29 06:46:49;;;;;;;9.03;6.53;;;;;;;;;;5076543;28;20454;-74
2022/03/29 06:49:15;;;;;;;9.97;5.97;;;;;;;;;;5076189;28;20446;-73
2022/03/29 06:51:44;;;;;;;10.13;5.83;;;;;;;;;;5076413;28;20463;-73
2022/03/29 06:54:10;;;;;;;26.50;7.57;;;;;;;;;;5076463;28;20792;-73
2022/03/29 06:56:36;;;;;;;14.07;7.90;;;;;;;;;;5076396;28;20409;-77
2022/03/29 06:59:02;;;;;;;9.07;6.80;;;;;;;;;;5076025;28;20823;-73
2022/03/29 07:01:29;;;;;;;11.73;6.73;;;;;;;;;;5076137;28;20414;-74
2022/03/29 07:03:59;;;;;;;11.23;6.40;;;;;;;;;;5076465;28;20413;-73
2022/03/29 07:06:25;;;;;;;11.03;7.00;;;;;;;;;;5075934;28;20904;-72
2022/03/29 07:11:36;;;;;;;11.13;8.00;;;;;;;;;;5076235;28;20511;-73
2022/03/29 07:14:06;;;;;;;13.17;7.60;;;;;;;;;;5075863;28;20420;-73
2022/03/29 07:16:32;;;;;;;12.83;9.70;;;;;;;;;;5076075;28;20409;-72
2022/03/29 07:18:58;;;;;;;22.53;12.60;;;;;;;;;;5075814;28;21011;-73
2022/03/29 07:21:24;;;;;;;22.00;9.80;;;;;;;;;;5075740;28;20754;-72
2022/03/29 07:23:50;;;;;;;15.23;9.30;;;;;;;;;;5075958;28;20425;-73
2022/03/29 07:26:16;;;;;;;26.87;9.33;;;;;;;;;;5075524;28;20532;-72
2022/03/29 07:28:42;;;;;;;16.37;9.30;;;;;;;;;;5075696;28;20804;-74
2022/03/29 07:31:08;;;;;;;14.33;8.20;;;;;;;;;;5075379;28;20977;-74
2022/03/29 07:33:34;;;;;;;12.57;8.27;;;;;;;;;;5074769;28;20770;-73
2022/03/29 07:36:03;;;;;;;22.37;8.53;;;;;;;;;;5076156;28;20421;-73
2022/03/29 07:38:29;;;;;;;11.50;7.50;;;;;;;;;;5075458;28;20469;-73
2022/03/29 07:40:55;;;;;;;12.60;7.70;;;;;;;;;;5075354;28;20851;-73
2022/03/29 07:43:22;;;;;;;11.43;7.33;;;;;;;;;;5075533;28;20416;-73
2022/03/29 07:45:48;;;;;;;13.30;7.00;;;;;;;;;;5075440;28;20505;-73
2022/03/29 07:48:14;;;;;;;16.77;7.50;;;;;;;;;;5075225;28;20451;-73
2022/03/29 07:50:40;;;;;;;18.57;11.57;;;;;;;;;;5075189;28;20422;-73
2022/03/29 07:56:09;;;;;;;22.33;12.87;;;;;;;;;;5075055;28;20451;-73
2022/03/29 07:58:35;;;;;;;33.93;11.53;;;;;;;;;;5075207;28;20480;-73
2022/03/29 08:01:02;;;;;;;14.53;8.37;;;;;;;;;;5074814;28;20410;-73
2022/03/29 08:03:32;;;;;;;35.33;22.03;;;;;;;;;;5075199;28;20496;-73
2022/03/29 08:05:59;;;;;;;18.33;11.63;;;;;;;;;;5075197;28;20401;-72
2022/03/29 08:08:25;;;;;;;11.87;8.30;;;;;;;;;;5075227;28;20425;-73
2022/03/29 08:10:52;;;;;;;19.80;9.77;;;;;;;;;;5074887;28;20410;-73
2022/03/29 08:13:18;;;;;;;17.20;10.40;;;;;;;;;;5056853;28;20509;-73
2022/03/29 08:15:45;;;;;;;20.03;11.70;;;;;;;;;;5074746;28;20449;-73
2022/03/29 08:18:11;;;;;;;10.37;7.50;;;;;;;;;;5074476;28;20457;-73
2022/03/29 08:20:38;;;;;;;14.70;8.50;;;;;;;;;;5074807;28;20430;-73
2022/03/29 08:23:05;;;;;;;19.93;7.57;;;;;;;;;;5074674;28;20910;-73
2022/03/29 08:25:33;;;;;;;19.60;7.90;;;;;;;;;;5074638;28;20421;-75
2022/03/29 08:27:59;;;;;;;17.97;9.90;;;;;;;;;;5074492;28;20497;-73
2022/03/29 08:30:26;;;;;;;9.50;6.80;;;;;;;;;;5074071;28;20497;-73
2022/03/29 08:32:52;;;;;;;5.03;4.73;;;;;;;;;;5074390;28;20528;-74
2022/03/29 08:35:18;;;;;;;20.63;7.87;;;;;;;;;;5074895;28;20432;-73
2022/03/29 08:37:46;;;;;;;16.97;6.60;;;;;;;;;;5074132;28;20559;-73
2022/03/29 08:40:13;;;;;;;7.33;6.63;;;;;;;;;;5074124;28;20452;-73
2022/03/29 08:42:43;;;;;;;8.80;6.77;;;;;;;;;;5074306;28;20410;-74
2022/03/29 08:45:10;;;;;;;23.60;14.20;;;;;;;;;;5073985;28;20426;-69
2022/03/29 08:47:36;;;;;;;11.43;6.37;;;;;;;;;;5074218;28;20531;-73
2022/03/29 08:50:06;;;;;;;8.10;6.40;;;;;;;;;;5073905;28;20524;-74
2022/03/29 08:52:32;;;;;;;17.07;6.80;;;;;;;;;;5073870;28;20924;-74
2022/03/29 08:54:59;;;;;;;6.30;5.77;;;;;;;;;;5073715;28;20410;-73
2022/03/29 08:57:25;;;;;;;9.37;7.80;;;;;;;;;;5074324;28;20421;-73
2022/03/29 08:59:51;;;;;;;10.83;7.17;;;;;;;;;;5073570;28;20425;-73
2022/03/29 09:02:17;;;;;;;6.97;6.30;;;;;;;;;;5073546;28;20808;-73
2022/03/29 09:04:44;;;;;;;7.70;6.77;;;;;;;;;;5074015;28;20520;-73
2022/03/29 09:07:10;;;;;;;9.70;5.87;;;;;;;;;;5073792;28;20406;-73
2022/03/29 09:09:38;;;;;;;16.87;6.17;;;;;;;;;;5073897;28;20445;-73
2022/03/29 09:12:20;;;;;;;12.13;7.00;;;;;;;;;;5073532;28;20916;-73
2022/03/29 09:14:54;;;;;;;7.10;6.37;;;;;;;;;;5073394;28;20909;-74
2022/03/29 09:17:36;;;;;;;14.27;7.17;;;;;;;;;;5073351;28;20444;-73
2022/03/29 09:20:04;;;;;;;6.53;6.03;;;;;;;;;;5073358;28;20426;-73
2022/03/29 09:25:35;;;;;;;8.33;7.13;;;;;;;;;;5073364;28;20517;-73
2022/03/29 09:28:05;;;;;;;7.50;6.87;;;;;;;;;;5073631;28;20418;-74
2022/03/29 09:30:38;;;;;;;12.83;7.10;;;;;;;;;;5054761;28;20483;-74
2022/03/29 09:33:12;;;;;;;14.87;7.90;;;;;;;;;;5073473;28;20963;-72
2022/03/29 09:35:56;;;;;;;11.13;6.40;;;;;;;;;;5073155;28;20424;-72
2022/03/29 09:38:34;;;;;;;7.57;6.77;;;;;;;;;;5073088;28;20468;-73
2022/03/29 09:41:01;;;;;;;9.00;7.17;;;;;;;;;;5073034;28;20492;-72
2022/03/29 09:43:28;;;;;;;14.90;6.87;;;;;;;;;;5073027;28;20425;-72
2022/03/29 09:45:55;;;;;;;7.80;7.10;;;;;;;;;;5073075;28;20921;-73
2022/03/29 09:48:22;;;;;;;9.40;7.13;;;;;;;;;;5073064;28;20913;-73
2022/03/29 09:50:49;;;;;;;7.80;6.47;;;;;;;;;;5072923;28;20409;-72
2022/03/29 09:53:35;;;;;;;11.60;7.07;;;;;;;;;;5073542;28;20443;-73
2022/03/29 09:56:01;;;;;;;12.83;6.67;;;;;;;;;;5073431;28;20460;-73
2022/03/29 09:58:28;;;;;;;9.20;7.67;;;;;;;;;;5072651;28;20476;-73
2022/03/29 10:00:55;;;;;;;12.10;8.47;;;;;;;;;;5073116;28;20467;-73
2022/03/29 10:03:23;;;;;;;16.93;7.40;;;;;;;;;;5073678;28;20421;-73
2022/03/29 10:05:50;;;;;;;8.70;6.80;;;;;;;;;;5073157;28;20410;-73
2022/03/29 10:11:03;;;;;;;7.93;6.63;;;;;;;;;;5073195;28;20800;-73
2022/03/29 10:13:30;;;;;;;11.77;6.97;;;;;;;;;;5073009;28;20437;-74
2022/03/29 10:15:57;;;;;;;15.20;6.80;;;;;;;;;;5073068;28;20413;-72
2022/03/29 10:18:25;;;;;;;8.83;6.77;;;;;;;;;;5072672;28;20500;-74
2022/03/29 10:20:52;;;;;;;16.90;7.33;;;;;;;;;;5072702;28;21016;-72
2022/03/29 10:23:22;;;;;;;8.70;6.90;;;;;;;;;;5073102;28;20416;-75
2022/03/29 10:25:49;;;;;;;11.27;6.70;;;;;;;;;;5073467;28;20433;-73
2022/03/29 10:28:15;;;;;;;7.83;6.00;;;;;;;;;;5072658;28;20420;-74
2022/03/29 10:30:42;;;;;;;7.20;6.50;;;;;;;;;;5054576;28;20457;-75
2022/03/29 10:33:27;;;;;;;11.13;7.80;;;;;;;;;;5072847;28;20450;-74
2022/03/29 10:35:59;;;;;;;7.43;6.73;;;;;;;;;;5072685;28;20414;-77
2022/03/29 10:38:46;;;;;;;8.33;6.83;;;;;;;;;;5054481;28;20507;-74
2022/03/29 10:41:30;;;;;;;13.23;6.47;;;;;;;;;;5072833;28;20498;-73
2022/03/29 10:44:14;;;;;;;8.13;7.33;;;;;;;;;;5073061;28;20405;-72
2022/03/29 10:46:40;;;;;;;10.10;7.53;;;;;;;;;;5072788;28;20398;-72
2022/03/29 10:49:21;;;;;;;7.37;6.67;;;;;;;;;;5072435;28;20436;-72
2022/03/29 10:51:55;;;;;;;8.10;6.70;;;;;;;;;;5072716;28;20410;-73
2022/03/29 10:54:24;;;;;;;7.23;6.30;;;;;;;;;;5072378;28;20429;-72
2022/03/29 10:56:57;;;;;;;9.00;5.70;;;;;;;;;;5072255;28;20811;-71
2022/03/29 10:59:24;;;;;;;17.43;6.60;;;;;;;;;;5072366;28;20469;-73
2022/03/29 11:02:08;;;;;;;12.60;6.17;;;;;;;;;;5072437;28;20410;-72
2022/03/29 11:04:34;;;;;;;15.57;6.83;;;;;;;;;;5072535;28;20497;-72
2022/03/29 11:07:07;;;;;;;18.63;6.73;;;;;;;;;;5072182;28;20472;-72
2022/03/29 11:09:34;;;;;;;8.77;6.73;;;;;;;;;;5073622;28;20500;-72
2022/03/29 11:12:00;;;;;;;10.63;6.60;;;;;;;;;;5075950;28;20462;-72
2022/03/29 11:14:30;;;;;;;12.73;6.80;;;;;;;;;;5076344;28;20839;-72
2022/03/29 11:16:56;;;;;;;19.40;5.93;;;;;;;;;;5076036;28;20429;-73
2022/03/29 11:19:44;;;;;;;14.90;7.40;;;;;;;;;;5075620;28;20500;-72
2022/03/29 11:22:22;;;;;;;15.00;6.00;;;;;;;;;;5075932;28;20428;-73
2022/03/29 11:24:55;;;;;;;11.13;6.20;;;;;;;;;;5075940;28;20445;-73
2022/03/29 11:27:32;;;;;;;9.23;6.10;;;;;;;;;;5075478;28;20433;-73
2022/03/29 11:29:58;;;;;;;15.13;7.13;;;;;;;;;;5075456;28;20398;-72
2022/03/29 11:32:24;;;;;;;11.33;5.73;;;;;;;;;;5075836;28;20422;-72
2022/03/29 11:34:58;;;;;;;13.80;6.53;;;;;;;;;;5058617;28;20421;-72
2022/03/29 11:37:42;;;;;;;11.17;5.50;;;;;;;;;;5075510;28;20405;-72
2022/03/29 11:40:09;;;;;;;14.90;6.50;;;;;;;;;;5075374;28;20507;-72
2022/03/29 11:43:05;;;;;;;9.43;5.80;;;;;;;;;;5075263;28;20402;-72
2022/03/29 11:45:31;;;;;;;13.37;6.63;;;;;;;;;;5073238;28;20504;-66
2022/03/29 11:48:01;;;;;;;8.00;6.30;;;;;;;;;;5075083;28;20908;-65
2022/03/29 11:50:35;;;;;;;12.33;6.37;;;;;;;;;;5076292;28;20428;-66
2022/03/29 11:56:08;;;;;;;9.10;6.43;;;;;;;;;;5075155;28;20752;-72
2022/03/29 11:58:37;;;;;;;9.60;6.30;;;;;;;;;;5074898;28;20469;-73
2022/03/29 12:01:07;;;;;;;11.40;6.13;;;;;;;;;;5074935;28;20942;-73
2022/03/29 12:03:41;;;;;;;9.80;6.87;;;;;;;;;;5074926;28;20414;-72
2022/03/29 12:06:14;;;;;;;11.73;6.67;;;;;;;;;;5075297;28;20885;-73
2022/03/29 12:08:44;;;;;;;11.80;6.53;;;;;;;;;;5074481;28;20417;-72
2022/03/29 12:11:10;;;;;;;10.70;6.23;;;;;;;;;;5075058;28;20418;-72
2022/03/29 12:13:36;;;;;;;12.77;6.17;;;;;;;;;;5075020;28;20806;-73
2022/03/29 12:16:15;;;;;;;6.20;5.60;;;;;;;;;;5075037;28;20421;-73
2022/03/29 12:18:41;;;;;;;16.67;6.63;;;;;;;;;;5074919;28;20476;-72
2022/03/29 12:21:13;;;;;;;7.10;6.40;;;;;;;;;;5074199;28;20437;-72
2022/03/29 12:23:41;;;;;;;14.43;6.43;;;;;;;;;;5075119;28;20398;-72
2022/03/29 12:26:08;;;;;;;10.67;6.27;;;;;;;;;;5075452;28;20520;-72
2022/03/29 12:28:34;;;;;;;10.63;5.80;;;;;;;;;;5074414;28;20415;-73
2022/03/29 12:31:00;;;;;;;9.00;6.57;;;;;;;;;;5074334;28;20458;-73
2022/03/29 12:33:26;;;;;;;16.23;6.80;;;;;;;;;;5074857;28;20444;-73
2022/03/29 12:36:02;;;;;;;12.00;6.27;;;;;;;;;;5074596;28;20421;-72
2022/03/29 12:38:38;;;;;;;14.23;7.73;;;;;;;;;;5074228;28;20472;-72
2022/03/29 12:41:04;;;;;;;11.40;6.33;;;;;;;;;;5074520;28;20397;-73
2022/03/29 12:43:33;;;;;;;15.63;6.77;;;;;;;;;;5074306;28;20424;-72
2022/03/29 12:45:59;;;;;;;7.50;5.37;;;;;;;;;;5074313;28;20410;-72
2022/03/29 12:48:26;;;;;;;25.10;6.77;;;;;;;;;;5073991;28;20495;-73
2022/03/29 12:50:53;;;;;;;13.43;6.63;;;;;;;;;;5074159;28;20441;-72
2022/03/29 12:53:19;;;;;;;7.70;6.67;;;;;;;;;;5055675;28;20413;-73
2022/03/29 12:56:09;;;;;;;20.03;6.53;;;;;;;;;;5073870;28;20782;-75
2022/03/29 12:58:36;;;;;;;11.87;6.50;;;;;;;;;;5074098;28;20492;-73
2022/03/29 13:01:03;;;;;;;14.23;6.60;;;;;;;;;;5073431;28;20409;-73
2022/03/29 13:03:35;;;;;;;8.80;6.30;;;;;;;;;;5073948;28;20428;-73
2022/03/29 13:06:05;;;;;;;12.17;7.17;;;;;;;;;;5073976;28;20404;-72
2022/03/29 13:08:31;;;;;;;7.43;5.90;;;;;;;;;;5073575;28;20512;-73
2022/03/29 13:10:57;;;;;;;12.10;6.40;;;;;;;;;;5073877;28;20782;-73
2022/03/29 13:13:28;;;;;;;15.60;6.00;;;;;;;;;;5073555;28;20425;-73
2022/03/29 13:16:00;;;;;;;8.30;5.70;;;;;;;;;;5073771;28;20394;-73
2022/03/29 13:18:35;;;;;;;8.80;5.17;;;;;;;;;;5073602;28;20480;-73
2022/03/29 13:21:22;;;;;;;14.00;5.27;;;;;;;;;;5073323;28;20500;-74
2022/03/29 13:23:52;;;;;;;10.27;6.33;;;;;;;;;;5073549;28;20417;-73
2022/03/29 13:26:19;;;;;;;14.10;6.10;;;;;;;;;;5073653;28;20406;-72
2022/03/29 13:28:46;;;;;;;12.57;6.20;;;;;;;;;;5074024;28;20417;-73
2022/03/29 13:31:16;;;;;;;8.30;5.80;;;;;;;;;;5073075;28;20481;-73
2022/03/29 13:33:43;;;;;;;12.20;5.40;;;;;;;;;;5073310;28;20742;-73
2022/03/29 13:36:10;;;;;;;21.40;5.60;;;;;;;;;;5073163;28;20468;-73
2022/03/29 13:38:36;;;;;;;6.90;5.07;;;;;;;;;;5073367;28;20469;-74
2022/03/29 13:41:03;;;;;;;19.17;5.07;;;;;;;;;;5073517;28;20447;-73
2022/03/29 13:43:31;;;;;;;21.87;5.20;;;;;;;;;;5055227;28;20432;-73
2022/03/29 13:45:57;;;;;;;10.80;5.60;;;;;;;;;;5073078;28;20776;-73
2022/03/29 13:48:23;;;;;;;15.33;6.87;;;;;;;;;;5073335;28;20422;-73
2022/03/29 13:50:49;;;;;;;10.03;5.87;;;;;;;;;;5073303;28;20896;-73
2022/03/29 13:53:17;;;;;;;7.40;5.90;;;;;;;;;;5073065;28;20444;-74
2022/03/29 13:55:43;;;;;;;6.00;5.33;;;;;;;;;;5055102;28;20460;-74
2022/03/29 13:58:09;;;;;;;15.83;4.93;;;;;;;;;;5072985;28;20489;-73
2022/03/29 14:00:35;;;;;;;9.17;5.70;;;;;;;;;;5073653;28;20475;-73
2022/03/29 14:03:01;;;;;;;7.60;5.13;;;;;;;;;;5054677;28;20414;-74
2022/03/29 14:05:28;;;;;;;14.00;6.40;;;;;;;;;;5072799;28;20456;-74
2022/03/29 14:07:58;;;;;;;14.97;6.70;;;;;;;;;;5073192;28;20414;-73
2022/03/29 14:10:24;;;;;;;21.73;6.63;;;;;;;;;;5072633;28;20422;-75
2022/03/29 14:12:50;;;;;;;10.47;5.60;;;;;;;;;;5072685;28;20417;-74
2022/03/29 14:15:16;;;;;;;4.17;3.87;;;;;;;;;;5072659;28;20472;-73
2022/03/29 14:17:42;;;;;;;13.13;5.90;;;;;;;;;;5072588;28;20825;-66
2022/03/29 14:20:08;;;;;;;17.60;5.60;;;;;;;;;;5072777;28;20428;-76
2022/03/29 14:25:39;;;;;;;6.60;5.00;;;;;;;;;;5072417;28;20400;-72
2022/03/29 14:28:10;;;;;;;20.23;4.80;;;;;;;;;;5072642;28;20418;-73
2022/03/29 14:30:37;;;;;;;27.30;5.67;;;;;;;;;;5072707;28;20465;-73
2022/03/29 14:33:03;;;;;;;28.83;5.87;;;;;;;;;;5054478;28;20426;-72
2022/03/29 14:35:29;;;;;;;17.10;5.60;;;;;;;;;;5072533;28;20414;-73
2022/03/29 14:37:55;;;;;;;19.87;6.90;;;;;;;;;;5072742;28;20460;-73
2022/03/29 14:40:21;;;;;;;12.03;4.43;;;;;;;;;;5072813;28;20417;-73
2022/03/29 14:45:51;;;;;;;14.60;5.30;;;;;;;;;;5076429;28;20428;-74
2022/03/29 14:48:17;;;;;;;26.23;5.60;;;;;;;;;;5076269;28;20853;-79
2022/03/29 14:50:43;;;;;;;12.80;5.20;;;;;;;;;;5076618;28;20467;-74
2022/03/29 14:53:09;;;;;;;21.80;6.70;;;;;;;;;;5076381;28;20478;-73
2022/03/29 14:55:36;;;;;;;13.67;5.10;;;;;;;;;;5076409;28;20420;-76
2022/03/29 14:58:02;;;;;;;27.60;6.70;;;;;;;;;;5076042;28;20457;-74
2022/03/29 15:00:28;;;;;;;26.37;5.00;;;;;;;;;;5075883;28;20506;-73
2022/03/29 15:02:54;;;;;;;12.47;5.10;;;;;;;;;;5075912;28;20413;-73
2022/03/29 15:05:20;;;;;;;26.40;4.83;;;;;;;;;;5075786;28;20431;-73
2022/03/29 15:07:47;;;;;;;27.60;5.73;;;;;;;;;;5058025;28;20433;-73
2022/03/29 15:10:13;;;;;;;15.67;5.20;;;;;;;;;;5076222;28;20478;-74
2022/03/29 15:15:43;;;;;;;16.13;5.77;;;;;;;;;;5075811;28;20388;-73